createdAt,value
2017-05-04T00:00:53.280Z,0
2017-05-04T00:01:53.922Z,0
2017-05-04T00:02:54.564Z,0
2017-05-04T00:03:55.206Z,0
2017-05-04T00:04:55.848Z,0
2017-05-04T00:05:56.491Z,0
2017-05-04T00:06:57.138Z,0
2017-05-04T00:07:57.977Z,0
2017-05-04T00:08:58.620Z,0
2017-05-04T00:09:59.262Z,0
2017-05-04T00:10:59.906Z,0
2017-05-04T00:12:00.550Z,0
2017-05-04T00:13:01.194Z,0
2017-05-04T00:14:01.838Z,0
2017-05-04T00:15:02.477Z,0
2017-05-04T00:16:03.118Z,0
2017-05-04T00:17:04.013Z,0
2017-05-04T00:18:04.656Z,0
2017-05-04T00:19:05.299Z,0
2017-05-04T00:20:05.941Z,0
2017-05-04T00:21:06.582Z,0
2017-05-04T00:22:07.222Z,0
2017-05-04T00:23:07.865Z,0
2017-05-04T00:24:08.509Z,0
2017-05-04T00:25:09.508Z,0
2017-05-04T00:26:10.149Z,0
2017-05-04T00:27:10.791Z,0
2017-05-04T00:28:11.433Z,0
2017-05-04T00:29:12.075Z,0
2017-05-04T00:30:12.713Z,0
2017-05-04T00:31:13.355Z,0
2017-05-04T00:32:13.998Z,0
2017-05-04T00:33:14.842Z,0
2017-05-04T00:34:15.486Z,0
2017-05-04T00:35:16.129Z,0
2017-05-04T00:36:16.773Z,0
2017-05-04T00:37:17.415Z,0
2017-05-04T00:38:18.060Z,0
2017-05-04T00:39:18.701Z,0
2017-05-04T00:40:19.344Z,0
2017-05-04T00:41:20.187Z,0
2017-05-04T00:42:20.833Z,0
2017-05-04T00:43:21.472Z,0
2017-05-04T00:44:22.116Z,0
2017-05-04T00:45:22.756Z,0
2017-05-04T00:46:23.400Z,0
2017-05-04T00:47:24.047Z,0
2017-05-04T00:48:24.682Z,0
2017-05-04T00:49:25.331Z,0
2017-05-04T00:50:26.117Z,0
2017-05-04T00:51:26.759Z,0
2017-05-04T00:52:27.401Z,0
2017-05-04T00:53:28.038Z,0
2017-05-04T00:54:28.680Z,0
2017-05-04T00:55:29.322Z,0
2017-05-04T00:56:29.965Z,0
2017-05-04T00:57:30.603Z,0
2017-05-04T00:58:31.449Z,0
2017-05-04T00:59:32.092Z,0
2017-05-04T01:00:32.733Z,0
2017-05-04T01:01:33.376Z,0
2017-05-04T01:02:34.017Z,0
2017-05-04T01:03:34.657Z,0
2017-05-04T01:04:35.299Z,0
2017-05-04T01:05:35.946Z,0
2017-05-04T01:06:36.791Z,0
2017-05-04T01:07:37.489Z,0
2017-05-04T01:08:38.133Z,0
2017-05-04T01:09:38.776Z,0
2017-05-04T01:10:39.420Z,0
2017-05-04T01:11:40.057Z,0
2017-05-04T01:12:40.699Z,0
2017-05-04T01:13:41.336Z,0
2017-05-04T01:14:42.179Z,0
2017-05-04T01:15:42.822Z,0
2017-05-04T01:16:43.461Z,0
2017-05-04T01:17:44.102Z,0
2017-05-04T01:18:44.745Z,0
2017-05-04T01:19:45.389Z,0
2017-05-04T01:20:46.035Z,0
2017-05-04T01:21:46.683Z,0
2017-05-04T01:22:47.470Z,0
2017-05-04T01:23:48.113Z,0
2017-05-04T01:24:48.757Z,0
2017-05-04T01:25:49.399Z,0
2017-05-04T01:26:50.040Z,0
2017-05-04T01:27:50.677Z,0
2017-05-04T01:28:51.323Z,0
2017-05-04T01:29:51.965Z,0
2017-05-04T01:30:52.608Z,0
2017-05-04T01:31:53.601Z,0
2017-05-04T01:32:54.238Z,0
2017-05-04T01:33:54.876Z,0
2017-05-04T01:34:55.518Z,0
2017-05-04T01:35:56.163Z,0
2017-05-04T01:36:56.811Z,0
2017-05-04T01:37:57.506Z,0
2017-05-04T01:38:58.149Z,0
2017-05-04T01:39:58.995Z,0
2017-05-04T01:40:59.637Z,0
2017-05-04T01:42:00.279Z,0
2017-05-04T01:43:00.923Z,0
2017-05-04T01:44:01.571Z,0
2017-05-04T01:45:02.204Z,0
2017-05-04T01:46:02.841Z,0
2017-05-04T01:47:03.485Z,0
2017-05-04T01:48:04.327Z,0
2017-05-04T01:49:04.971Z,0
2017-05-04T01:50:05.617Z,0
2017-05-04T01:51:06.256Z,0
2017-05-04T01:52:06.898Z,0
2017-05-04T01:53:07.541Z,0
2017-05-04T01:54:08.185Z,0
2017-05-04T01:55:08.828Z,0
2017-05-04T01:56:09.716Z,0
2017-05-04T01:57:10.362Z,0
2017-05-04T01:58:11.001Z,0
2017-05-04T01:59:11.644Z,0
2017-05-04T02:00:12.284Z,0
2017-05-04T02:01:12.930Z,0
2017-05-04T02:02:13.571Z,0
2017-05-04T02:03:14.209Z,0
2017-05-04T02:04:14.850Z,0
2017-05-04T02:05:15.695Z,0
2017-05-04T02:06:16.340Z,0
2017-05-04T02:07:16.983Z,0
2017-05-04T02:08:17.625Z,0
2017-05-04T02:09:18.262Z,0
2017-05-04T02:10:18.902Z,0
2017-05-04T02:11:19.547Z,0
2017-05-04T02:12:20.192Z,0
2017-05-04T02:13:20.985Z,0
2017-05-04T02:14:21.626Z,0
2017-05-04T02:15:22.269Z,0
2017-05-04T02:16:22.912Z,0
2017-05-04T02:17:23.556Z,0
2017-05-04T02:18:24.198Z,0
2017-05-04T02:19:24.839Z,0
2017-05-04T02:20:25.484Z,0
2017-05-04T02:21:26.323Z,0
2017-05-04T02:22:26.971Z,0
2017-05-04T02:23:27.607Z,0
2017-05-04T02:24:28.247Z,0
2017-05-04T02:25:28.887Z,0
2017-05-04T02:26:29.533Z,0
2017-05-04T02:27:30.174Z,0
2017-05-04T02:28:30.815Z,0
2017-05-04T02:29:31.606Z,0
2017-05-04T02:30:32.249Z,0
2017-05-04T02:31:32.894Z,0
2017-05-04T02:32:33.537Z,0
2017-05-04T02:33:34.178Z,0
2017-05-04T02:34:34.823Z,0
2017-05-04T02:35:35.466Z,0
2017-05-04T02:36:36.105Z,0
2017-05-04T02:37:37.044Z,0
2017-05-04T02:38:37.689Z,0
2017-05-04T02:39:38.329Z,0
2017-05-04T02:40:38.971Z,0
2017-05-04T02:41:39.613Z,0
2017-05-04T02:42:40.254Z,0
2017-05-04T02:43:40.897Z,0
2017-05-04T02:44:41.540Z,0
2017-05-04T02:45:42.183Z,0
2017-05-04T02:46:43.022Z,0
2017-05-04T02:47:43.664Z,0
2017-05-04T02:48:44.304Z,0
2017-05-04T02:49:44.945Z,0
2017-05-04T02:50:45.590Z,0
2017-05-04T02:51:46.231Z,0
2017-05-04T02:52:46.872Z,0
2017-05-04T02:53:47.512Z,0
2017-05-04T02:54:48.354Z,0
2017-05-04T02:55:48.997Z,0
2017-05-04T02:56:49.639Z,0
2017-05-04T02:57:50.279Z,0
2017-05-04T02:58:50.922Z,0
2017-05-04T02:59:51.559Z,0
2017-05-04T03:00:52.201Z,0
2017-05-04T03:01:52.844Z,0
2017-05-04T03:02:53.938Z,0
2017-05-04T03:03:54.578Z,0
2017-05-04T03:04:55.216Z,0
2017-05-04T03:05:55.858Z,0
2017-05-04T03:06:56.499Z,0
2017-05-04T03:07:57.143Z,0
2017-05-04T03:08:57.786Z,0
2017-05-04T03:09:58.429Z,0
2017-05-04T03:10:59.520Z,0
2017-05-04T03:12:00.163Z,0
2017-05-04T03:13:00.809Z,0
2017-05-04T03:14:01.451Z,0
2017-05-04T03:15:02.089Z,0
2017-05-04T03:16:02.731Z,0
2017-05-04T03:17:03.373Z,0
2017-05-04T03:18:04.014Z,0
2017-05-04T03:19:04.658Z,0
2017-05-04T03:20:05.502Z,0
2017-05-04T03:21:06.144Z,0
2017-05-04T03:22:06.787Z,0
2017-05-04T03:23:07.429Z,0
2017-05-04T03:24:08.074Z,0
2017-05-04T03:25:08.717Z,0
2017-05-04T03:26:09.354Z,0
2017-05-04T03:27:09.996Z,0
2017-05-04T03:28:10.786Z,0
2017-05-04T03:29:11.427Z,0
2017-05-04T03:30:12.069Z,0
2017-05-04T03:31:12.710Z,0
2017-05-04T03:32:13.351Z,0
2017-05-04T03:33:13.995Z,0
2017-05-04T03:34:14.642Z,0
2017-05-04T03:35:15.284Z,0
2017-05-04T03:36:16.124Z,0
2017-05-04T03:37:16.762Z,0
2017-05-04T03:38:17.406Z,0
2017-05-04T03:39:18.050Z,0
2017-05-04T03:40:18.685Z,0
2017-05-04T03:41:19.329Z,0
2017-05-04T03:42:19.967Z,0
2017-05-04T03:43:20.608Z,0
2017-05-04T03:44:21.450Z,0
2017-05-04T03:45:22.095Z,0
2017-05-04T03:46:22.735Z,0
2017-05-04T03:47:23.378Z,0
2017-05-04T03:48:24.020Z,0
2017-05-04T03:49:24.662Z,0
2017-05-04T03:50:25.332Z,0
2017-05-04T03:51:25.945Z,0
2017-05-04T03:52:26.786Z,0
2017-05-04T03:53:27.430Z,0
2017-05-04T03:54:28.070Z,0
2017-05-04T03:55:28.713Z,0
2017-05-04T03:56:29.349Z,0
2017-05-04T03:57:29.992Z,0
2017-05-04T03:58:30.632Z,0
2017-05-04T03:59:31.280Z,0
2017-05-04T04:00:31.920Z,0
2017-05-04T04:01:32.764Z,0
2017-05-04T04:02:33.405Z,0
2017-05-04T04:03:34.047Z,0
2017-05-04T04:04:34.690Z,0
2017-05-04T04:05:35.336Z,0
2017-05-04T04:06:35.976Z,0
2017-05-04T04:07:36.617Z,0
2017-05-04T04:08:37.261Z,0
2017-05-04T04:09:38.097Z,0
2017-05-04T04:10:38.739Z,0
2017-05-04T04:11:39.380Z,0
2017-05-04T04:12:40.020Z,0
2017-05-04T04:13:40.658Z,0
2017-05-04T04:14:41.301Z,0
2017-05-04T04:15:41.946Z,0
2017-05-04T04:16:42.588Z,0
2017-05-04T04:17:43.434Z,0
2017-05-04T04:18:44.073Z,0
2017-05-04T04:19:44.714Z,0
2017-05-04T04:20:45.359Z,0
2017-05-04T04:21:46.002Z,0
2017-05-04T04:22:46.641Z,0
2017-05-04T04:23:47.281Z,0
2017-05-04T04:24:47.924Z,0
2017-05-04T04:25:48.766Z,0
2017-05-04T04:26:49.414Z,0
2017-05-04T04:27:50.049Z,0
2017-05-04T04:28:50.692Z,0
2017-05-04T04:29:51.332Z,0
2017-05-04T04:30:51.976Z,0
2017-05-04T04:31:52.618Z,0
2017-05-04T04:32:53.260Z,0
2017-05-04T04:33:53.904Z,0
2017-05-04T04:34:54.994Z,0
2017-05-04T04:35:55.637Z,0
2017-05-04T04:36:56.279Z,0
2017-05-04T04:37:56.915Z,0
2017-05-04T04:38:57.558Z,0
2017-05-04T04:39:58.201Z,0
2017-05-04T04:40:58.843Z,0
2017-05-04T04:41:59.482Z,0
2017-05-04T04:43:00.423Z,0
2017-05-04T04:44:01.065Z,0
2017-05-04T04:45:01.705Z,0
2017-05-04T04:46:02.341Z,0
2017-05-04T04:47:02.984Z,0
2017-05-04T04:48:03.628Z,0
2017-05-04T04:49:04.269Z,0
2017-05-04T04:50:04.908Z,0
2017-05-04T04:51:05.899Z,0
2017-05-04T04:52:06.541Z,0
2017-05-04T04:53:07.183Z,0
2017-05-04T04:54:07.825Z,0
2017-05-04T04:55:08.465Z,0
2017-05-04T04:56:09.102Z,0
2017-05-04T04:57:09.743Z,0
2017-05-04T04:58:10.385Z,0
2017-05-04T04:59:11.328Z,0
2017-05-04T05:00:11.971Z,0
2017-05-04T05:01:12.615Z,0
2017-05-04T05:02:13.258Z,0
2017-05-04T05:03:13.899Z,0
2017-05-04T05:04:14.542Z,0
2017-05-04T05:05:15.185Z,0
2017-05-04T05:06:15.827Z,0
2017-05-04T05:07:16.918Z,0
2017-05-04T05:08:17.559Z,0
2017-05-04T05:09:18.204Z,0
2017-05-04T05:10:18.846Z,0
2017-05-04T05:11:19.487Z,0
2017-05-04T05:12:20.132Z,0
2017-05-04T05:13:20.774Z,0
2017-05-04T05:14:21.416Z,0
2017-05-04T05:15:22.057Z,0
2017-05-04T05:16:23.049Z,0
2017-05-04T05:17:23.691Z,0
2017-05-04T05:18:24.333Z,0
2017-05-04T05:19:24.974Z,0
2017-05-04T05:20:25.620Z,0
2017-05-04T05:21:26.262Z,0
2017-05-04T05:22:26.899Z,0
2017-05-04T05:23:27.540Z,0
2017-05-04T05:24:28.529Z,0
2017-05-04T05:25:29.170Z,0
2017-05-04T05:26:29.814Z,0
2017-05-04T05:27:30.457Z,0
2017-05-04T05:28:31.097Z,0
2017-05-04T05:29:31.741Z,0
2017-05-04T05:30:32.382Z,0
2017-05-04T05:31:33.025Z,0
2017-05-04T05:32:34.268Z,0
2017-05-04T05:33:34.907Z,0
2017-05-04T05:34:35.544Z,0
2017-05-04T05:35:36.188Z,0
2017-05-04T05:36:36.830Z,0
2017-05-04T05:37:37.469Z,0
2017-05-04T05:38:38.109Z,0
2017-05-04T05:39:38.751Z,0
2017-05-04T05:40:39.890Z,0
2017-05-04T05:41:40.533Z,0
2017-05-04T05:42:41.178Z,0
2017-05-04T05:43:41.820Z,0
2017-05-04T05:44:42.463Z,0
2017-05-04T05:45:43.104Z,0
2017-05-04T05:46:43.747Z,0
2017-05-04T05:47:44.390Z,0
2017-05-04T05:48:45.030Z,0
2017-05-04T05:49:46.023Z,0
2017-05-04T05:50:46.725Z,0
2017-05-04T05:51:47.368Z,0
2017-05-04T05:52:48.008Z,0
2017-05-04T05:53:48.650Z,0
2017-05-04T05:54:49.292Z,0
2017-05-04T05:55:49.939Z,0
2017-05-04T05:56:50.576Z,0
2017-05-04T05:57:51.669Z,0
2017-05-04T05:58:52.312Z,0
2017-05-04T05:59:52.954Z,0
2017-05-04T06:00:53.597Z,0
2017-05-04T06:01:54.240Z,0
2017-05-04T06:02:54.882Z,0
2017-05-04T06:03:55.523Z,0
2017-05-04T06:04:56.164Z,0
2017-05-04T06:05:57.257Z,0
2017-05-04T06:06:57.902Z,0
2017-05-04T06:07:58.538Z,0
2017-05-04T06:08:59.176Z,0
2017-05-04T06:09:59.818Z,0
2017-05-04T06:11:00.460Z,0
2017-05-04T06:12:01.106Z,0
2017-05-04T06:13:01.803Z,0
2017-05-04T06:14:02.595Z,0
2017-05-04T06:15:03.238Z,0
2017-05-04T06:16:03.882Z,0
2017-05-04T06:17:04.521Z,0
2017-05-04T06:18:05.163Z,0
2017-05-04T06:19:05.811Z,0
2017-05-04T06:20:06.450Z,0
2017-05-04T06:21:07.413Z,0
2017-05-04T06:22:08.254Z,0
2017-05-04T06:23:08.897Z,0
2017-05-04T06:24:09.537Z,0
2017-05-04T06:25:10.178Z,0
2017-05-04T06:26:10.821Z,0
2017-05-04T06:27:11.467Z,0
2017-05-04T06:28:12.108Z,0
2017-05-04T06:29:12.745Z,0
2017-05-04T06:30:13.382Z,0
2017-05-04T06:31:14.523Z,0
2017-05-04T06:32:15.165Z,0
2017-05-04T06:33:15.805Z,0
2017-05-04T06:34:16.446Z,0
2017-05-04T06:35:17.086Z,0
2017-05-04T06:36:17.726Z,0
2017-05-04T06:37:18.368Z,0
2017-05-04T06:38:19.014Z,0
2017-05-04T06:39:19.847Z,0
2017-05-04T06:40:20.486Z,0
2017-05-04T06:41:21.125Z,0
2017-05-04T06:42:21.765Z,0
2017-05-04T06:43:22.402Z,0
2017-05-04T06:44:23.046Z,0
2017-05-04T06:45:23.688Z,0
2017-05-04T06:46:24.331Z,0
2017-05-04T06:47:25.122Z,0
2017-05-04T06:48:25.765Z,0
2017-05-04T06:49:26.406Z,0
2017-05-04T06:50:27.046Z,0
2017-05-04T06:51:27.689Z,0
2017-05-04T06:52:28.330Z,0
2017-05-04T06:53:28.970Z,0
2017-05-04T06:54:29.613Z,0
2017-05-04T06:55:30.557Z,0
2017-05-04T06:56:31.199Z,0
2017-05-04T06:57:31.842Z,0
2017-05-04T06:58:32.482Z,0
2017-05-04T06:59:33.124Z,4
2017-05-04T07:00:33.767Z,4
2017-05-04T07:01:34.467Z,4
2017-05-04T07:02:35.112Z,4
2017-05-04T07:03:35.755Z,4
2017-05-04T07:04:36.599Z,4
2017-05-04T07:05:37.239Z,0
2017-05-04T07:06:37.880Z,0
2017-05-04T07:07:38.522Z,4
2017-05-04T07:08:39.159Z,4
2017-05-04T07:09:39.802Z,4
2017-05-04T07:10:40.444Z,4
2017-05-04T07:11:41.090Z,4
2017-05-04T07:12:41.876Z,4
2017-05-04T07:13:42.521Z,4
2017-05-04T07:14:43.163Z,8
2017-05-04T07:15:43.807Z,4
2017-05-04T07:16:44.446Z,4
2017-05-04T07:17:45.091Z,8
2017-05-04T07:18:45.733Z,8
2017-05-04T07:19:46.374Z,8
2017-05-04T07:20:47.217Z,8
2017-05-04T07:21:47.854Z,8
2017-05-04T07:22:48.495Z,8
2017-05-04T07:23:49.134Z,8
2017-05-04T07:24:49.772Z,8
2017-05-04T07:25:50.414Z,8
2017-05-04T07:26:51.055Z,8
2017-05-04T07:27:51.697Z,8
2017-05-04T07:28:52.486Z,8
2017-05-04T07:29:53.127Z,8
2017-05-04T07:30:53.775Z,8
2017-05-04T07:31:54.419Z,8
2017-05-04T07:32:55.062Z,8
2017-05-04T07:33:55.701Z,12
2017-05-04T07:34:56.340Z,12
2017-05-04T07:35:56.983Z,8
2017-05-04T07:36:57.923Z,8
2017-05-04T07:37:58.566Z,8
2017-05-04T07:38:59.207Z,8
2017-05-04T07:39:59.848Z,8
2017-05-04T07:41:00.496Z,8
2017-05-04T07:42:01.140Z,12
2017-05-04T07:43:01.786Z,12
2017-05-04T07:44:02.428Z,12
2017-05-04T07:45:03.068Z,8
2017-05-04T07:46:03.907Z,8
2017-05-04T07:47:04.554Z,8
2017-05-04T07:48:05.199Z,12
2017-05-04T07:49:05.841Z,12
2017-05-04T07:50:06.486Z,12
2017-05-04T07:51:07.127Z,8
2017-05-04T07:52:07.768Z,8
2017-05-04T07:53:08.410Z,8
2017-05-04T07:54:09.247Z,8
2017-05-04T07:55:09.891Z,8
2017-05-04T07:56:10.531Z,8
2017-05-04T07:57:11.176Z,8
2017-05-04T07:58:11.817Z,8
2017-05-04T07:59:12.462Z,12
2017-05-04T08:00:13.108Z,12
2017-05-04T08:01:13.751Z,12
2017-05-04T08:02:14.594Z,8
2017-05-04T08:03:15.238Z,8
2017-05-04T08:04:15.882Z,12
2017-05-04T08:05:16.522Z,12
2017-05-04T08:06:17.165Z,12
2017-05-04T08:07:17.812Z,12
2017-05-04T08:08:18.456Z,12
2017-05-04T08:09:19.092Z,12
2017-05-04T08:10:19.930Z,16
2017-05-04T08:11:20.576Z,16
2017-05-04T08:12:21.220Z,12
2017-05-04T08:13:21.863Z,12
2017-05-04T08:14:22.501Z,12
2017-05-04T08:15:23.147Z,12
2017-05-04T08:16:23.789Z,12
2017-05-04T08:17:24.431Z,12
2017-05-04T08:18:25.071Z,12
2017-05-04T08:19:25.922Z,12
2017-05-04T08:20:26.559Z,12
2017-05-04T08:21:27.202Z,12
2017-05-04T08:22:27.843Z,12
2017-05-04T08:23:28.487Z,16
2017-05-04T08:24:29.127Z,12
2017-05-04T08:25:29.772Z,16
2017-05-04T08:26:30.412Z,16
2017-05-04T08:27:31.203Z,16
2017-05-04T08:28:31.847Z,16
2017-05-04T08:29:32.488Z,16
2017-05-04T08:30:33.129Z,12
2017-05-04T08:31:33.772Z,16
2017-05-04T08:32:34.414Z,16
2017-05-04T08:33:35.054Z,16
2017-05-04T08:34:35.700Z,16
2017-05-04T08:35:36.643Z,16
2017-05-04T08:36:37.291Z,16
2017-05-04T08:37:37.941Z,16
2017-05-04T08:38:38.574Z,12
2017-05-04T08:39:39.218Z,12
2017-05-04T08:40:39.860Z,12
2017-05-04T08:41:40.503Z,12
2017-05-04T08:42:41.148Z,12
2017-05-04T08:43:41.993Z,16
2017-05-04T08:44:42.635Z,16
2017-05-04T08:45:43.277Z,16
2017-05-04T08:46:43.923Z,16
2017-05-04T08:47:44.568Z,16
2017-05-04T08:48:45.209Z,16
2017-05-04T08:49:45.851Z,16
2017-05-04T08:50:46.491Z,16
2017-05-04T08:51:47.436Z,16
2017-05-04T08:52:48.073Z,16
2017-05-04T08:53:48.716Z,16
2017-05-04T08:54:49.355Z,16
2017-05-04T08:55:49.998Z,16
2017-05-04T08:56:50.649Z,16
2017-05-04T08:57:51.284Z,16
2017-05-04T08:58:51.928Z,16
2017-05-04T08:59:52.571Z,20
2017-05-04T09:00:53.363Z,16
2017-05-04T09:01:54.021Z,16
2017-05-04T09:02:54.650Z,16
2017-05-04T09:03:55.292Z,20
2017-05-04T09:04:55.935Z,16
2017-05-04T09:05:56.581Z,16
2017-05-04T09:06:57.225Z,16
2017-05-04T09:07:57.871Z,16
2017-05-04T09:08:58.870Z,16
2017-05-04T09:09:59.516Z,16
2017-05-04T09:11:00.153Z,16
2017-05-04T09:12:00.798Z,16
2017-05-04T09:13:01.444Z,16
2017-05-04T09:14:02.089Z,12
2017-05-04T09:15:02.728Z,12
2017-05-04T09:16:03.363Z,12
2017-05-04T09:17:04.302Z,12
2017-05-04T09:18:04.948Z,12
2017-05-04T09:19:05.591Z,12
2017-05-04T09:20:06.233Z,12
2017-05-04T09:21:06.873Z,12
2017-05-04T09:22:07.517Z,12
2017-05-04T09:23:08.220Z,12
2017-05-04T09:24:08.856Z,12
2017-05-04T09:25:09.696Z,16
2017-05-04T09:26:10.344Z,16
2017-05-04T09:27:10.981Z,20
2017-05-04T09:28:11.622Z,20
2017-05-04T09:29:12.263Z,20
2017-05-04T09:30:12.907Z,20
2017-05-04T09:31:13.549Z,20
2017-05-04T09:32:14.194Z,24
2017-05-04T09:33:14.838Z,20
2017-05-04T09:34:15.633Z,24
2017-05-04T09:35:16.277Z,16
2017-05-04T09:36:16.917Z,12
2017-05-04T09:37:17.560Z,16
2017-05-04T09:38:18.205Z,12
2017-05-04T09:39:18.847Z,16
2017-05-04T09:40:19.493Z,12
2017-05-04T09:41:20.456Z,20
2017-05-04T09:42:21.302Z,12
2017-05-04T09:43:21.943Z,20
2017-05-04T09:44:22.584Z,20
2017-05-04T09:45:23.224Z,20
2017-05-04T09:46:23.867Z,20
2017-05-04T09:47:24.512Z,16
2017-05-04T09:48:25.156Z,24
2017-05-04T09:49:25.799Z,24
2017-05-04T09:50:26.638Z,24
2017-05-04T09:51:27.285Z,28
2017-05-04T09:52:27.930Z,24
2017-05-04T09:53:28.575Z,24
2017-05-04T09:54:29.219Z,28
2017-05-04T09:55:29.860Z,28
2017-05-04T09:56:30.506Z,28
2017-05-04T09:57:31.149Z,28
2017-05-04T09:58:31.888Z,28
2017-05-04T09:59:32.530Z,28
2017-05-04T10:00:33.173Z,28
2017-05-04T10:01:33.815Z,28
2017-05-04T10:02:34.458Z,28
2017-05-04T10:03:35.097Z,28
2017-05-04T10:04:35.741Z,24
2017-05-04T10:05:36.389Z,32
2017-05-04T10:06:37.226Z,28
2017-05-04T10:07:37.872Z,32
2017-05-04T10:08:38.521Z,28
2017-05-04T10:09:39.160Z,32
2017-05-04T10:10:39.809Z,32
2017-05-04T10:11:40.446Z,32
2017-05-04T10:12:41.084Z,32
2017-05-04T10:13:41.727Z,32
2017-05-04T10:14:42.373Z,28
2017-05-04T10:15:43.217Z,24
2017-05-04T10:16:43.859Z,24
2017-05-04T10:17:44.502Z,20
2017-05-04T10:18:45.143Z,24
2017-05-04T10:19:45.784Z,24
2017-05-04T10:20:46.429Z,28
2017-05-04T10:21:47.074Z,24
2017-05-04T10:22:47.717Z,24
2017-05-04T10:23:48.563Z,28
2017-05-04T10:24:49.211Z,5508
2017-05-04T10:25:49.854Z,5216
2017-05-04T10:26:50.499Z,5116
2017-05-04T10:27:51.144Z,5120
2017-05-04T10:28:51.793Z,5220
2017-05-04T10:29:52.441Z,5512
2017-05-04T10:30:53.091Z,5400
2017-05-04T10:31:53.889Z,5356
2017-05-04T10:32:54.538Z,5384
2017-05-04T10:33:55.184Z,5652
2017-05-04T10:34:55.830Z,5688
2017-05-04T10:35:56.478Z,5604
2017-05-04T10:36:57.126Z,5532
2017-05-04T10:37:57.774Z,5716
2017-05-04T10:38:58.417Z,5820
2017-05-04T10:39:59.266Z,5748
2017-05-04T10:40:59.918Z,5616
2017-05-04T10:42:00.568Z,5556
2017-05-04T10:43:01.215Z,5648
2017-05-04T10:44:01.860Z,5828
2017-05-04T10:45:02.510Z,6124
2017-05-04T10:46:03.154Z,6640
2017-05-04T10:47:03.801Z,7192
2017-05-04T10:48:04.450Z,7672
2017-05-04T10:49:05.298Z,7712
2017-05-04T10:50:05.945Z,7884
2017-05-04T10:51:06.590Z,7616
2017-05-04T10:52:07.235Z,7960
2017-05-04T10:53:07.886Z,7932
2017-05-04T10:54:08.535Z,7532
2017-05-04T10:55:09.192Z,7756
2017-05-04T10:56:09.836Z,7740
2017-05-04T10:57:10.836Z,7304
2017-05-04T10:58:11.485Z,6864
2017-05-04T10:59:12.134Z,6812
2017-05-04T11:00:12.783Z,6660
2017-05-04T11:01:13.431Z,6792
2017-05-04T11:02:14.082Z,6924
2017-05-04T11:03:14.730Z,6948
2017-05-04T11:04:15.382Z,6768
2017-05-04T11:05:16.288Z,6852
2017-05-04T11:06:16.937Z,6688
2017-05-04T11:07:17.589Z,6992
2017-05-04T11:08:18.237Z,7672
2017-05-04T11:09:18.887Z,8860
2017-05-04T11:10:19.541Z,9620
2017-05-04T11:11:20.246Z,12844
2017-05-04T11:12:20.896Z,13084
2017-05-04T11:13:21.747Z,14116
2017-05-04T11:14:22.399Z,8312
2017-05-04T11:15:23.049Z,18752
2017-05-04T11:16:23.700Z,22528
2017-05-04T11:17:24.351Z,25312
2017-05-04T11:18:25.001Z,27744
2017-05-04T11:19:25.649Z,28768
2017-05-04T11:20:26.304Z,33280
2017-05-04T11:21:27.158Z,34848
2017-05-04T11:22:27.818Z,33568
2017-05-04T11:23:28.461Z,26848
2017-05-04T11:24:29.110Z,34304
2017-05-04T11:25:29.759Z,40064
2017-05-04T11:26:30.411Z,39392
2017-05-04T11:27:31.064Z,41792
2017-05-04T11:28:31.709Z,41664
2017-05-04T11:29:32.362Z,42496
2017-05-04T11:30:33.268Z,42432
2017-05-04T11:31:33.920Z,39936
2017-05-04T11:32:34.576Z,37376
2017-05-04T11:33:35.231Z,33888
2017-05-04T11:34:35.886Z,34016
2017-05-04T11:35:36.538Z,33632
2017-05-04T11:36:37.190Z,33216
2017-05-04T11:37:37.845Z,35584
2017-05-04T11:38:38.843Z,36864
2017-05-04T11:39:39.495Z,39232
2017-05-04T11:40:40.146Z,42112
2017-05-04T11:41:40.799Z,41088
2017-05-04T11:42:41.455Z,42848
2017-05-04T11:43:42.430Z,39520
2017-05-04T11:44:43.087Z,46336
2017-05-04T11:45:43.736Z,42816
2017-05-04T11:46:44.542Z,40512
2017-05-04T11:47:45.196Z,46816
2017-05-04T11:48:45.851Z,49280
2017-05-04T11:49:46.506Z,52256
2017-05-04T11:50:47.162Z,52256
2017-05-04T11:51:47.820Z,50112
2017-05-04T11:52:48.474Z,48512
2017-05-04T11:53:49.132Z,50432
2017-05-04T11:54:50.036Z,52864
2017-05-04T11:55:50.697Z,52640
2017-05-04T11:56:51.349Z,49088
2017-05-04T11:57:52.005Z,49536
2017-05-04T11:58:52.658Z,50528
2017-05-04T11:59:53.309Z,50720
2017-05-04T12:00:53.966Z,46016
2017-05-04T12:01:54.622Z,43264
2017-05-04T12:02:55.279Z,43936
2017-05-04T12:03:56.136Z,44928
2017-05-04T12:04:56.792Z,40064
2017-05-04T12:05:57.446Z,39776
2017-05-04T12:06:58.102Z,38112
2017-05-04T12:07:58.762Z,40576
2017-05-04T12:08:59.417Z,38080
2017-05-04T12:10:00.076Z,40000
2017-05-04T12:11:00.726Z,37504
2017-05-04T12:12:01.584Z,41760
2017-05-04T12:13:02.237Z,40384
2017-05-04T12:14:02.894Z,38880
2017-05-04T12:15:03.552Z,36768
2017-05-04T12:16:04.210Z,34400
2017-05-04T12:17:04.867Z,35232
2017-05-04T12:18:05.519Z,36000
2017-05-04T12:19:06.175Z,36672
2017-05-04T12:20:07.133Z,36064
2017-05-04T12:21:07.787Z,36448
2017-05-04T12:22:08.443Z,42528
2017-05-04T12:23:09.100Z,45760
2017-05-04T12:24:09.754Z,44736
2017-05-04T12:25:10.411Z,37216
2017-05-04T12:26:11.071Z,45120
2017-05-04T12:27:11.726Z,48480
2017-05-04T12:28:12.683Z,49760
2017-05-04T12:29:13.334Z,35200
2017-05-04T12:30:13.990Z,42912
2017-05-04T12:31:14.649Z,43744
2017-05-04T12:32:15.307Z,49376
2017-05-04T12:33:15.963Z,46336
2017-05-04T12:34:16.619Z,46080
2017-05-04T12:35:17.272Z,41120
2017-05-04T12:36:18.079Z,39776
2017-05-04T12:37:18.737Z,38400
2017-05-04T12:38:19.394Z,33696
2017-05-04T12:39:20.004Z,30368
2017-05-04T12:40:20.656Z,27232
2017-05-04T12:41:21.309Z,23776
2017-05-04T12:42:21.963Z,21920
2017-05-04T12:43:22.624Z,19328
2017-05-04T12:44:23.280Z,18144
2017-05-04T12:45:24.138Z,17568
2017-05-04T12:46:24.804Z,17244
2017-05-04T12:47:25.461Z,17208
2017-05-04T12:48:26.069Z,16320
2017-05-04T12:49:26.731Z,16284
2017-05-04T12:50:27.390Z,16504
2017-05-04T12:51:28.043Z,16956
2017-05-04T12:52:28.697Z,16808
2017-05-04T12:53:29.552Z,16424
2017-05-04T12:54:30.212Z,16040
2017-05-04T12:55:30.873Z,15480
2017-05-04T12:56:31.527Z,16176
2017-05-04T12:57:32.185Z,15632
2017-05-04T12:58:32.844Z,15444
2017-05-04T12:59:33.503Z,16640
2017-05-04T13:00:34.164Z,16940
2017-05-04T13:01:35.021Z,17696
2017-05-04T13:02:35.680Z,17984
2017-05-04T13:03:36.340Z,15568
2017-05-04T13:04:36.999Z,16704
2017-05-04T13:05:37.661Z,16908
2017-05-04T13:06:38.314Z,15860
2017-05-04T13:07:38.971Z,15968
2017-05-04T13:08:39.629Z,15484
2017-05-04T13:09:40.544Z,14448
2017-05-04T13:10:41.202Z,15068
2017-05-04T13:11:41.859Z,15116
2017-05-04T13:12:42.514Z,15364
2017-05-04T13:13:43.174Z,16580
2017-05-04T13:14:43.831Z,17528
2017-05-04T13:15:44.487Z,18368
2017-05-04T13:16:45.142Z,16408
2017-05-04T13:17:45.799Z,14852
2017-05-04T13:18:46.607Z,11460
2017-05-04T13:19:47.262Z,10888
2017-05-04T13:20:47.917Z,10188
2017-05-04T13:21:48.577Z,11072
2017-05-04T13:22:49.288Z,12636
2017-05-04T13:23:49.941Z,11620
2017-05-04T13:24:50.600Z,10104
2017-05-04T13:25:51.256Z,8760
2017-05-04T13:26:52.107Z,8388
2017-05-04T13:27:52.764Z,7984
2017-05-04T13:28:53.417Z,8364
2017-05-04T13:29:54.071Z,8264
2017-05-04T13:30:54.725Z,8008
2017-05-04T13:31:55.379Z,6700
2017-05-04T13:32:56.034Z,5492
2017-05-04T13:33:56.687Z,6128
2017-05-04T13:34:57.536Z,6908
2017-05-04T13:35:58.194Z,6052
2017-05-04T13:36:58.847Z,7404
2017-05-04T13:37:59.503Z,7820
2017-05-04T13:39:00.155Z,8420
2017-05-04T13:40:00.802Z,8812
2017-05-04T13:41:01.451Z,9780
2017-05-04T13:42:02.105Z,12756
2017-05-04T13:43:02.958Z,13124
2017-05-04T13:44:03.614Z,15020
2017-05-04T13:45:04.269Z,13136
2017-05-04T13:46:04.922Z,11096
2017-05-04T13:47:05.576Z,10928
2017-05-04T13:48:06.233Z,13908
2017-05-04T13:49:06.880Z,16200
2017-05-04T13:50:07.531Z,12696
2017-05-04T13:51:08.385Z,6652
2017-05-04T13:52:09.039Z,16024
2017-05-04T13:53:09.688Z,13368
2017-05-04T13:54:10.354Z,13284
2017-05-04T13:55:10.990Z,9936
2017-05-04T13:56:11.638Z,8148
2017-05-04T13:57:12.341Z,5520
2017-05-04T13:58:12.996Z,5536
2017-05-04T13:59:13.649Z,6692
2017-05-04T14:00:14.496Z,6512
2017-05-04T14:01:15.150Z,6544
2017-05-04T14:02:15.861Z,5328
2017-05-04T14:03:16.513Z,5572
2017-05-04T14:04:17.166Z,6112
2017-05-04T14:05:17.818Z,6868
2017-05-04T14:06:18.465Z,6288
2017-05-04T14:07:19.116Z,5452
2017-05-04T14:08:19.919Z,5436
2017-05-04T14:09:20.632Z,5380
2017-05-04T14:10:21.280Z,6060
2017-05-04T14:11:21.932Z,7164
2017-05-04T14:12:22.584Z,8012
2017-05-04T14:13:23.235Z,7412
2017-05-04T14:14:23.883Z,7200
2017-05-04T14:15:24.532Z,7308
2017-05-04T14:16:25.485Z,6800
2017-05-04T14:17:26.138Z,7092
2017-05-04T14:18:26.743Z,6928
2017-05-04T14:19:27.393Z,6524
2017-05-04T14:20:28.044Z,6424